sensor_id;sensor_type;location;lat;lon;timestamp;pressure;altitude;pressure_sealevel;temperature;humidity
64460;BME280;50828;53.756;21.140;2022-08-16T00:04:31;99343.27;;;23.69;51.91
64460;BME280;50828;53.756;21.140;2022-08-16T00:09:37;99342.67;;;23.64;52.02
64460;BME280;50828;53.756;21.140;2022-08-16T00:14:44;99339.64;;;23.59;52.07
64460;BME280;50828;53.756;21.140;2022-08-16T00:19:51;99338.92;;;23.56;52.16
64460;BME280;50828;53.756;21.140;2022-08-16T00:24:57;99336.91;;;23.51;52.25
64460;BME280;50828;53.756;21.140;2022-08-16T00:30:09;99328.77;;;23.46;52.24
64460;BME280;50828;53.756;21.140;2022-08-16T00:35:35;99326.38;;;23.42;52.51
64460;BME280;50828;53.756;21.140;2022-08-16T00:40:42;99325.02;;;23.39;52.50
64460;BME280;50828;53.756;21.140;2022-08-16T00:45:57;99325.05;;;23.36;52.59
64460;BME280;50828;53.756;21.140;2022-08-16T00:51:25;99334.47;;;23.33;52.60
64460;BME280;50828;53.756;21.140;2022-08-16T00:56:32;99337.69;;;23.30;52.74
64460;BME280;50828;53.756;21.140;2022-08-16T01:02:00;99339.95;;;23.27;52.72
64460;BME280;50828;53.756;21.140;2022-08-16T01:07:26;99340.46;;;23.24;52.89
64460;BME280;50828;53.756;21.140;2022-08-16T01:12:52;99341.30;;;23.21;52.92
64460;BME280;50828;53.756;21.140;2022-08-16T01:18:03;99343.27;;;23.18;53.11
64460;BME280;50828;53.756;21.140;2022-08-16T01:23:30;99343.22;;;23.15;53.20
64460;BME280;50828;53.756;21.140;2022-08-16T01:29:02;99342.50;;;23.12;53.32
64460;BME280;50828;53.756;21.140;2022-08-16T01:34:13;99339.61;;;23.08;53.32
64460;BME280;50828;53.756;21.140;2022-08-16T01:39:31;99333.45;;;23.05;53.49
64460;BME280;50828;53.756;21.140;2022-08-16T01:44:38;99335.11;;;23.01;53.57
64460;BME280;50828;53.756;21.140;2022-08-16T01:49:45;99333.51;;;22.98;53.73
64460;BME280;50828;53.756;21.140;2022-08-16T01:55:11;99334.47;;;22.94;53.79
64460;BME280;50828;53.756;21.140;2022-08-16T02:00:18;99326.06;;;22.90;53.92
64460;BME280;50828;53.756;21.140;2022-08-16T02:05:33;99325.98;;;22.87;53.98
64460;BME280;50828;53.756;21.140;2022-08-16T02:10:38;99320.52;;;22.84;54.07
64460;BME280;50828;53.756;21.140;2022-08-16T02:15:44;99311.41;;;22.81;54.11
64460;BME280;50828;53.756;21.140;2022-08-16T02:20:52;99312.16;;;22.78;54.31
64460;BME280;50828;53.756;21.140;2022-08-16T02:25:59;99316.48;;;22.75;54.39
64460;BME280;50828;53.756;21.140;2022-08-16T02:31:06;99322.07;;;22.73;54.35
64460;BME280;50828;53.756;21.140;2022-08-16T02:36:13;99316.99;;;22.70;54.51
64460;BME280;50828;53.756;21.140;2022-08-16T02:41:40;99310.48;;;22.65;54.63
64460;BME280;50828;53.756;21.140;2022-08-16T02:46:46;99304.58;;;22.63;54.61
64460;BME280;50828;53.756;21.140;2022-08-16T02:51:56;99305.77;;;22.61;54.75
64460;BME280;50828;53.756;21.140;2022-08-16T02:57:04;99304.27;;;22.56;54.80
64460;BME280;50828;53.756;21.140;2022-08-16T03:02:10;99301.86;;;22.53;54.84
64460;BME280;50828;53.756;21.140;2022-08-16T03:07:19;99301.00;;;22.49;54.83
64460;BME280;50828;53.756;21.140;2022-08-16T03:12:31;99301.43;;;22.45;55.04
64460;BME280;50828;53.756;21.140;2022-08-16T03:17:57;99305.94;;;22.40;55.10
64460;BME280;50828;53.756;21.140;2022-08-16T03:23:05;99303.24;;;22.34;55.26
64460;BME280;50828;53.756;21.140;2022-08-16T03:28:10;99299.98;;;22.28;55.35
64460;BME280;50828;53.756;21.140;2022-08-16T03:33:20;99311.56;;;22.23;55.49
64460;BME280;50828;53.756;21.140;2022-08-16T03:38:31;99310.88;;;22.17;55.60
64460;BME280;50828;53.756;21.140;2022-08-16T03:43:41;99315.55;;;22.12;55.67
64460;BME280;50828;53.756;21.140;2022-08-16T03:48:57;99320.88;;;22.07;55.87
64460;BME280;50828;53.756;21.140;2022-08-16T03:54:04;99317.17;;;22.01;55.80
64460;BME280;50828;53.756;21.140;2022-08-16T03:59:16;99321.88;;;21.97;56.12
64460;BME280;50828;53.756;21.140;2022-08-16T04:04:24;99323.04;;;21.92;56.13
64460;BME280;50828;53.756;21.140;2022-08-16T04:09:38;99324.17;;;21.87;56.36
64460;BME280;50828;53.756;21.140;2022-08-16T04:14:44;99321.55;;;21.82;56.62
64460;BME280;50828;53.756;21.140;2022-08-16T04:19:51;99327.09;;;21.79;56.60
64460;BME280;50828;53.756;21.140;2022-08-16T04:25:01;99325.36;;;21.76;56.90
64460;BME280;50828;53.756;21.140;2022-08-16T04:30:12;99327.29;;;21.75;57.11
64460;BME280;50828;53.756;21.140;2022-08-16T04:35:37;99331.61;;;21.75;57.30
64460;BME280;50828;53.756;21.140;2022-08-16T04:40:44;99333.03;;;21.75;57.32
64460;BME280;50828;53.756;21.140;2022-08-16T04:45:52;99338.98;;;21.76;57.48
64460;BME280;50828;53.756;21.140;2022-08-16T04:51:06;99339.52;;;21.80;57.68
64460;BME280;50828;53.756;21.140;2022-08-16T04:56:23;99344.72;;;21.85;57.90
64460;BME280;50828;53.756;21.140;2022-08-16T05:01:29;99343.95;;;21.93;57.95
64460;BME280;50828;53.756;21.140;2022-08-16T05:06:55;99344.73;;;22.01;57.99
64460;BME280;50828;53.756;21.140;2022-08-16T05:12:13;99347.45;;;22.12;58.05
64460;BME280;50828;53.756;21.140;2022-08-16T05:17:25;99356.00;;;22.25;58.02
64460;BME280;50828;53.756;21.140;2022-08-16T05:22:36;99358.25;;;22.37;58.01
64460;BME280;50828;53.756;21.140;2022-08-16T05:27:49;99355.16;;;22.49;57.92
64460;BME280;50828;53.756;21.140;2022-08-16T05:32:55;99354.80;;;22.63;57.72
64460;BME280;50828;53.756;21.140;2022-08-16T05:38:01;99354.30;;;22.72;57.56
64460;BME280;50828;53.756;21.140;2022-08-16T05:43:27;99352.09;;;22.81;57.43
64460;BME280;50828;53.756;21.140;2022-08-16T05:48:34;99349.45;;;22.93;57.21
64460;BME280;50828;53.756;21.140;2022-08-16T05:53:44;99355.17;;;23.05;57.01
64460;BME280;50828;53.756;21.140;2022-08-16T05:58:52;99360.19;;;23.16;56.99
64460;BME280;50828;53.756;21.140;2022-08-16T06:03:58;99360.34;;;23.25;56.86
64460;BME280;50828;53.756;21.140;2022-08-16T06:09:08;99361.24;;;23.33;56.74
64460;BME280;50828;53.756;21.140;2022-08-16T06:14:16;99356.69;;;23.41;56.59
64460;BME280;50828;53.756;21.140;2022-08-16T06:19:23;99355.36;;;23.47;56.42
64460;BME280;50828;53.756;21.140;2022-08-16T06:24:42;99355.08;;;23.51;56.38
64460;BME280;50828;53.756;21.140;2022-08-16T06:29:58;99357.15;;;23.57;56.36
64460;BME280;50828;53.756;21.140;2022-08-16T06:35:07;99350.94;;;23.61;56.46
64460;BME280;50828;53.756;21.140;2022-08-16T06:40:14;99354.19;;;23.73;56.32
64460;BME280;50828;53.756;21.140;2022-08-16T06:45:25;99356.64;;;23.85;56.43
64460;BME280;50828;53.756;21.140;2022-08-16T06:50:42;99359.96;;;24.01;56.41
64460;BME280;50828;53.756;21.140;2022-08-16T06:55:49;99353.95;;;24.17;56.30
64460;BME280;50828;53.756;21.140;2022-08-16T07:00:57;99361.16;;;24.33;56.05
64460;BME280;50828;53.756;21.140;2022-08-16T07:06:05;99359.17;;;24.48;55.86
64460;BME280;50828;53.756;21.140;2022-08-16T07:11:17;99361.48;;;24.63;55.74
64460;BME280;50828;53.756;21.140;2022-08-16T07:16:44;99365.71;;;24.79;55.45
64460;BME280;50828;53.756;21.140;2022-08-16T07:21:51;99360.30;;;24.95;55.16
64460;BME280;50828;53.756;21.140;2022-08-16T07:27:03;99356.67;;;25.11;54.99
64460;BME280;50828;53.756;21.140;2022-08-16T07:32:11;99352.91;;;25.27;54.63
64460;BME280;50828;53.756;21.140;2022-08-16T07:37:17;99347.77;;;25.40;54.38
64460;BME280;50828;53.756;21.140;2022-08-16T07:42:51;99346.47;;;25.55;54.22
64460;BME280;50828;53.756;21.140;2022-08-16T07:47:58;99346.53;;;25.68;53.94
64460;BME280;50828;53.756;21.140;2022-08-16T07:53:16;99346.39;;;25.82;53.74
64460;BME280;50828;53.756;21.140;2022-08-16T07:58:24;99342.50;;;25.93;53.42
64460;BME280;50828;53.756;21.140;2022-08-16T08:03:47;99345.54;;;26.05;53.24
64460;BME280;50828;53.756;21.140;2022-08-16T08:08:58;99341.45;;;26.15;53.07
64460;BME280;50828;53.756;21.140;2022-08-16T08:14:03;99339.96;;;26.27;52.97
64460;BME280;50828;53.756;21.140;2022-08-16T08:19:16;99344.09;;;26.39;52.72
64460;BME280;50828;53.756;21.140;2022-08-16T08:24:24;99342.45;;;26.51;52.55
64460;BME280;50828;53.756;21.140;2022-08-16T08:29:35;99341.17;;;26.64;52.08
64460;BME280;50828;53.756;21.140;2022-08-16T08:34:46;99338.92;;;26.75;51.65
64460;BME280;50828;53.756;21.140;2022-08-16T08:39:53;99338.27;;;26.83;51.41
64460;BME280;50828;53.756;21.140;2022-08-16T08:44:59;99337.67;;;26.91;51.42
64460;BME280;50828;53.756;21.140;2022-08-16T08:50:09;99340.41;;;27.00;51.18
64460;BME280;50828;53.756;21.140;2022-08-16T08:55:36;99346.08;;;27.11;50.77
64460;BME280;50828;53.756;21.140;2022-08-16T09:00:41;99346.26;;;27.22;50.72
64460;BME280;50828;53.756;21.140;2022-08-16T09:05:56;99349.77;;;27.33;50.57
64460;BME280;50828;53.756;21.140;2022-08-16T09:11:04;99345.38;;;27.45;49.84
64460;BME280;50828;53.756;21.140;2022-08-16T09:16:12;99340.97;;;27.58;49.42
64460;BME280;50828;53.756;21.140;2022-08-16T09:21:39;99342.49;;;27.74;49.19
64460;BME280;50828;53.756;21.140;2022-08-16T09:26:47;99352.75;;;27.92;48.74
64460;BME280;50828;53.756;21.140;2022-08-16T09:31:55;99363.66;;;28.07;47.99
64460;BME280;50828;53.756;21.140;2022-08-16T09:37:01;99369.90;;;28.17;47.53
64460;BME280;50828;53.756;21.140;2022-08-16T09:42:21;99379.92;;;28.26;47.28
64460;BME280;50828;53.756;21.140;2022-08-16T09:47:27;99378.63;;;28.31;47.14
64460;BME280;50828;53.756;21.140;2022-08-16T09:52:52;99382.05;;;28.36;46.98
64460;BME280;50828;53.756;21.140;2022-08-16T09:58:00;99386.48;;;28.40;46.75
64460;BME280;50828;53.756;21.140;2022-08-16T10:03:07;99392.80;;;28.43;46.68
64460;BME280;50828;53.756;21.140;2022-08-16T10:08:13;99393.08;;;28.45;46.58
64460;BME280;50828;53.756;21.140;2022-08-16T10:13:29;99399.51;;;28.48;46.75
64460;BME280;50828;53.756;21.140;2022-08-16T10:18:36;99399.89;;;28.49;46.90
64460;BME280;50828;53.756;21.140;2022-08-16T10:24:02;99407.61;;;28.53;46.75
64460;BME280;50828;53.756;21.140;2022-08-16T10:29:08;99403.56;;;28.53;46.59
64460;BME280;50828;53.756;21.140;2022-08-16T10:34:22;99408.86;;;28.52;46.66
64460;BME280;50828;53.756;21.140;2022-08-16T10:39:34;99410.16;;;28.50;46.68
64460;BME280;50828;53.756;21.140;2022-08-16T10:44:44;99410.45;;;28.48;46.19
64460;BME280;50828;53.756;21.140;2022-08-16T10:49:57;99416.63;;;28.43;46.04
64460;BME280;50828;53.756;21.140;2022-08-16T10:55:03;99420.40;;;28.39;46.10
64460;BME280;50828;53.756;21.140;2022-08-16T11:00:32;99430.15;;;28.32;46.10
64460;BME280;50828;53.756;21.140;2022-08-16T11:05:39;99434.67;;;28.22;46.41
64460;BME280;50828;53.756;21.140;2022-08-16T11:11:02;99438.42;;;28.05;47.30
64460;BME280;50828;53.756;21.140;2022-08-16T11:16:21;99443.11;;;27.83;48.15
64460;BME280;50828;53.756;21.140;2022-08-16T11:21:29;99447.99;;;27.64;48.74
64460;BME280;50828;53.756;21.140;2022-08-16T11:26:37;99438.73;;;27.45;49.39
64460;BME280;50828;53.756;21.140;2022-08-16T11:31:42;99442.52;;;27.30;49.66
64460;BME280;50828;53.756;21.140;2022-08-16T11:36:56;99445.69;;;27.17;49.68
64460;BME280;50828;53.756;21.140;2022-08-16T11:42:04;99445.92;;;27.07;49.70
64460;BME280;50828;53.756;21.140;2022-08-16T11:47:29;99444.61;;;27.01;49.53
64460;BME280;50828;53.756;21.140;2022-08-16T11:52:35;99443.20;;;26.99;49.67
64460;BME280;50828;53.756;21.140;2022-08-16T11:57:49;99442.94;;;26.98;49.75
64460;BME280;50828;53.756;21.140;2022-08-16T12:02:59;99442.41;;;26.99;49.77
64460;BME280;50828;53.756;21.140;2022-08-16T12:08:06;99438.60;;;27.01;49.97
64460;BME280;50828;53.756;21.140;2022-08-16T12:13:14;99439.83;;;27.04;49.93
64460;BME280;50828;53.756;21.140;2022-08-16T12:18:23;99436.98;;;27.07;49.95
64460;BME280;50828;53.756;21.140;2022-08-16T12:23:28;99438.35;;;27.10;50.16
64460;BME280;50828;53.756;21.140;2022-08-16T12:28:34;99437.80;;;27.14;50.20
64460;BME280;50828;53.756;21.140;2022-08-16T12:33:58;99427.95;;;27.16;50.20
64460;BME280;50828;53.756;21.140;2022-08-16T12:39:03;99423.43;;;27.20;50.45
64460;BME280;50828;53.756;21.140;2022-08-16T12:44:09;99423.08;;;27.22;50.29
64460;BME280;50828;53.756;21.140;2022-08-16T12:49:22;99423.52;;;27.25;50.16
64460;BME280;50828;53.756;21.140;2022-08-16T12:54:32;99424.86;;;27.31;50.17
64460;BME280;50828;53.756;21.140;2022-08-16T12:59:39;99416.84;;;27.36;50.15
64460;BME280;50828;53.756;21.140;2022-08-16T13:04:45;99411.81;;;27.40;50.04
64460;BME280;50828;53.756;21.140;2022-08-16T13:09:52;99409.43;;;27.47;49.98
64460;BME280;50828;53.756;21.140;2022-08-16T13:15:01;99408.42;;;27.53;49.73
64460;BME280;50828;53.756;21.140;2022-08-16T13:20:08;99399.08;;;27.60;49.61
64460;BME280;50828;53.756;21.140;2022-08-16T13:25:15;99391.91;;;27.68;49.44
64460;BME280;50828;53.756;21.140;2022-08-16T13:30:24;99380.35;;;27.78;49.45
64460;BME280;50828;53.756;21.140;2022-08-16T13:35:45;99376.08;;;27.91;49.01
64460;BME280;50828;53.756;21.140;2022-08-16T13:41:03;99368.11;;;28.01;48.56
64460;BME280;50828;53.756;21.140;2022-08-16T13:46:11;99359.77;;;28.12;48.11
64460;BME280;50828;53.756;21.140;2022-08-16T13:51:18;99353.44;;;28.22;47.79
64460;BME280;50828;53.756;21.140;2022-08-16T13:56:27;99349.59;;;28.31;47.40
64460;BME280;50828;53.756;21.140;2022-08-16T14:01:40;99342.86;;;28.41;46.95
64460;BME280;50828;53.756;21.140;2022-08-16T14:06:47;99340.85;;;28.50;46.64
64460;BME280;50828;53.756;21.140;2022-08-16T14:11:52;99332.71;;;28.60;46.19
64460;BME280;50828;53.756;21.140;2022-08-16T14:17:00;99324.35;;;28.70;45.94
64460;BME280;50828;53.756;21.140;2022-08-16T14:22:05;99318.39;;;28.80;45.94
64460;BME280;50828;53.756;21.140;2022-08-16T14:27:19;99308.88;;;28.88;45.66
64460;BME280;50828;53.756;21.140;2022-08-16T14:32:26;99300.27;;;28.96;45.06
64460;BME280;50828;53.756;21.140;2022-08-16T14:37:37;99295.95;;;29.03;44.94
64460;BME280;50828;53.756;21.140;2022-08-16T14:42:45;99285.38;;;29.09;44.63
64460;BME280;50828;53.756;21.140;2022-08-16T14:47:53;99280.55;;;29.17;44.40
64460;BME280;50828;53.756;21.140;2022-08-16T14:52:59;99273.68;;;29.22;44.18
64460;BME280;50828;53.756;21.140;2022-08-16T14:58:06;99270.19;;;29.27;43.76
64460;BME280;50828;53.756;21.140;2022-08-16T15:03:22;99274.55;;;29.31;43.37
64460;BME280;50828;53.756;21.140;2022-08-16T15:08:28;99269.95;;;29.33;43.30
64460;BME280;50828;53.756;21.140;2022-08-16T15:13:39;99268.55;;;29.37;43.39
64460;BME280;50828;53.756;21.140;2022-08-16T15:18:45;99267.55;;;29.39;43.08
64460;BME280;50828;53.756;21.140;2022-08-16T15:23:52;99272.65;;;29.38;42.90
64460;BME280;50828;53.756;21.140;2022-08-16T15:28:57;99277.04;;;29.37;42.62
64460;BME280;50828;53.756;21.140;2022-08-16T15:34:03;99285.45;;;29.36;42.19
64460;BME280;50828;53.756;21.140;2022-08-16T15:39:15;99292.79;;;29.33;41.86
64460;BME280;50828;53.756;21.140;2022-08-16T15:44:40;99296.34;;;29.28;41.40
64460;BME280;50828;53.756;21.140;2022-08-16T15:49:56;99298.91;;;29.22;41.43
64460;BME280;50828;53.756;21.140;2022-08-16T15:55:04;99300.17;;;29.18;41.68
64460;BME280;50828;53.756;21.140;2022-08-16T16:00:30;99299.16;;;29.10;41.72
64460;BME280;50828;53.756;21.140;2022-08-16T16:05:36;99308.72;;;29.06;41.83
64460;BME280;50828;53.756;21.140;2022-08-16T16:10:42;99311.66;;;29.01;41.85
64460;BME280;50828;53.756;21.140;2022-08-16T16:15:58;99317.75;;;28.96;41.83
64460;BME280;50828;53.756;21.140;2022-08-16T16:21:07;99324.05;;;28.90;42.05
64460;BME280;50828;53.756;21.140;2022-08-16T16:26:23;99336.16;;;28.86;42.04
64460;BME280;50828;53.756;21.140;2022-08-16T16:31:29;99339.14;;;28.82;42.28
64460;BME280;50828;53.756;21.140;2022-08-16T16:36:38;99348.60;;;28.77;42.52
64460;BME280;50828;53.756;21.140;2022-08-16T16:41:51;99352.98;;;28.71;42.57
64460;BME280;50828;53.756;21.140;2022-08-16T16:46:56;99367.55;;;28.66;42.73
64460;BME280;50828;53.756;21.140;2022-08-16T16:52:02;99372.42;;;28.61;42.70
64460;BME280;50828;53.756;21.140;2022-08-16T16:57:09;99375.42;;;28.56;42.89
64460;BME280;50828;53.756;21.140;2022-08-16T17:02:37;99375.05;;;28.48;43.10
64460;BME280;50828;53.756;21.140;2022-08-16T17:07:57;99371.86;;;28.42;43.29
64460;BME280;50828;53.756;21.140;2022-08-16T17:13:03;99376.95;;;28.36;43.49
64460;BME280;50828;53.756;21.140;2022-08-16T17:18:12;99389.10;;;28.30;43.61
64460;BME280;50828;53.756;21.140;2022-08-16T17:23:38;99389.75;;;28.22;43.94
64460;BME280;50828;53.756;21.140;2022-08-16T17:29:02;99393.02;;;28.15;44.31
64460;BME280;50828;53.756;21.140;2022-08-16T17:34:14;99400.09;;;28.09;45.21
64460;BME280;50828;53.756;21.140;2022-08-16T17:39:33;99401.58;;;28.00;45.86
64460;BME280;50828;53.756;21.140;2022-08-16T17:45:00;99402.03;;;27.93;46.35
64460;BME280;50828;53.756;21.140;2022-08-16T17:50:07;99404.25;;;27.84;46.68
64460;BME280;50828;53.756;21.140;2022-08-16T17:55:16;99400.61;;;27.76;47.13
64460;BME280;50828;53.756;21.140;2022-08-16T18:00:24;99402.06;;;27.68;47.43
64460;BME280;50828;53.756;21.140;2022-08-16T18:05:30;99405.59;;;27.60;47.83
64460;BME280;50828;53.756;21.140;2022-08-16T18:10:37;99408.65;;;27.51;48.28
64460;BME280;50828;53.756;21.140;2022-08-16T18:15:43;99411.71;;;27.42;48.38
64460;BME280;50828;53.756;21.140;2022-08-16T18:20:48;99418.04;;;27.35;48.75
64460;BME280;50828;53.756;21.140;2022-08-16T18:26:11;99416.14;;;27.27;49.02
64460;BME280;50828;53.756;21.140;2022-08-16T18:31:17;99414.34;;;27.21;49.21
64460;BME280;50828;53.756;21.140;2022-08-16T18:36:22;99420.28;;;27.13;49.48
64460;BME280;50828;53.756;21.140;2022-08-16T18:41:28;99425.43;;;27.07;49.73
64460;BME280;50828;53.756;21.140;2022-08-16T18:46:40;99425.52;;;27.01;49.80
64460;BME280;50828;53.756;21.140;2022-08-16T18:51:46;99420.24;;;26.94;50.03
64460;BME280;50828;53.756;21.140;2022-08-16T18:56:53;99420.71;;;26.87;50.29
64460;BME280;50828;53.756;21.140;2022-08-16T19:02:01;99417.77;;;26.80;50.43
64460;BME280;50828;53.756;21.140;2022-08-16T19:07:08;99414.37;;;26.71;50.65
64460;BME280;50828;53.756;21.140;2022-08-16T19:12:14;99416.52;;;26.63;50.99
64460;BME280;50828;53.756;21.140;2022-08-16T19:17:40;99416.73;;;26.52;51.15
64460;BME280;50828;53.756;21.140;2022-08-16T19:22:45;99413.71;;;26.41;51.22
64460;BME280;50828;53.756;21.140;2022-08-16T19:28:09;99416.55;;;26.29;51.21
64460;BME280;50828;53.756;21.140;2022-08-16T19:33:35;99424.59;;;26.16;51.26
64460;BME280;50828;53.756;21.140;2022-08-16T19:38:40;99425.86;;;26.02;51.58
64460;BME280;50828;53.756;21.140;2022-08-16T19:43:46;99423.63;;;25.88;51.74
64460;BME280;50828;53.756;21.140;2022-08-16T19:48:52;99424.77;;;25.73;52.25
64460;BME280;50828;53.756;21.140;2022-08-16T19:53:58;99418.61;;;25.59;52.42
64460;BME280;50828;53.756;21.140;2022-08-16T19:59:03;99417.58;;;25.44;52.56
64460;BME280;50828;53.756;21.140;2022-08-16T20:04:29;99427.23;;;25.31;52.65
64460;BME280;50828;53.756;21.140;2022-08-16T20:09:35;99430.25;;;25.17;52.80
64460;BME280;50828;53.756;21.140;2022-08-16T20:14:42;99429.30;;;25.03;53.16
64460;BME280;50828;53.756;21.140;2022-08-16T20:19:47;99431.02;;;24.89;53.51
64460;BME280;50828;53.756;21.140;2022-08-16T20:24:53;99425.59;;;24.76;53.89
64460;BME280;50828;53.756;21.140;2022-08-16T20:29:59;99424.71;;;24.63;54.15
64460;BME280;50828;53.756;21.140;2022-08-16T20:35:08;99425.61;;;24.49;54.50
64460;BME280;50828;53.756;21.140;2022-08-16T20:40:15;99424.61;;;24.38;54.94
64460;BME280;50828;53.756;21.140;2022-08-16T20:45:38;99425.89;;;24.28;55.48
64460;BME280;50828;53.756;21.140;2022-08-16T20:50:44;99423.48;;;24.19;55.83
64460;BME280;50828;53.756;21.140;2022-08-16T20:55:50;99429.92;;;24.10;55.98
64460;BME280;50828;53.756;21.140;2022-08-16T21:00:55;99427.88;;;24.02;56.11
64460;BME280;50828;53.756;21.140;2022-08-16T21:06:02;99428.96;;;23.93;56.48
64460;BME280;50828;53.756;21.140;2022-08-16T21:11:08;99432.88;;;23.85;56.89
64460;BME280;50828;53.756;21.140;2022-08-16T21:16:15;99432.46;;;23.77;57.30
64460;BME280;50828;53.756;21.140;2022-08-16T21:21:21;99438.42;;;23.70;57.39
64460;BME280;50828;53.756;21.140;2022-08-16T21:26:34;99447.27;;;23.64;57.60
64460;BME280;50828;53.756;21.140;2022-08-16T21:31:42;99448.31;;;23.58;57.66
64460;BME280;50828;53.756;21.140;2022-08-16T21:36:48;99449.86;;;23.50;57.62
64460;BME280;50828;53.756;21.140;2022-08-16T21:41:53;99445.96;;;23.44;57.60
64460;BME280;50828;53.756;21.140;2022-08-16T21:46:59;99446.30;;;23.36;57.57
64460;BME280;50828;53.756;21.140;2022-08-16T21:52:05;99444.23;;;23.28;57.53
64460;BME280;50828;53.756;21.140;2022-08-16T21:57:11;99429.02;;;23.13;57.92
64460;BME280;50828;53.756;21.140;2022-08-16T22:02:17;99442.73;;;23.13;58.23
64460;BME280;50828;53.756;21.140;2022-08-16T22:07:23;99438.50;;;23.07;58.35
64460;BME280;50828;53.756;21.140;2022-08-16T22:12:29;99436.83;;;23.00;58.39
64460;BME280;50828;53.756;21.140;2022-08-16T22:17:35;99440.05;;;22.93;58.70
64460;BME280;50828;53.756;21.140;2022-08-16T22:22:42;99442.64;;;22.87;59.13
64460;BME280;50828;53.756;21.140;2022-08-16T22:27:48;99448.92;;;22.82;59.03
64460;BME280;50828;53.756;21.140;2022-08-16T22:32:53;99449.20;;;22.78;59.16
64460;BME280;50828;53.756;21.140;2022-08-16T22:37:59;99450.92;;;22.73;59.30
64460;BME280;50828;53.756;21.140;2022-08-16T22:43:25;99451.38;;;22.67;59.46
64460;BME280;50828;53.756;21.140;2022-08-16T22:48:31;99443.91;;;22.61;59.35
64460;BME280;50828;53.756;21.140;2022-08-16T22:53:44;99442.53;;;22.53;59.37
64460;BME280;50828;53.756;21.140;2022-08-16T22:58:50;99438.92;;;22.48;59.67
64460;BME280;50828;53.756;21.140;2022-08-16T23:03:55;99437.30;;;22.43;59.56
64460;BME280;50828;53.756;21.140;2022-08-16T23:09:02;99432.42;;;22.39;59.73
64460;BME280;50828;53.756;21.140;2022-08-16T23:14:07;99432.66;;;22.37;59.82
64460;BME280;50828;53.756;21.140;2022-08-16T23:19:14;99426.11;;;22.34;59.93
64460;BME280;50828;53.756;21.140;2022-08-16T23:24:20;99424.79;;;22.31;59.89
64460;BME280;50828;53.756;21.140;2022-08-16T23:29:27;99421.13;;;22.29;59.93
64460;BME280;50828;53.756;21.140;2022-08-16T23:34:32;99421.20;;;22.28;60.12
64460;BME280;50828;53.756;21.140;2022-08-16T23:39:40;99420.08;;;22.28;60.17
64460;BME280;50828;53.756;21.140;2022-08-16T23:44:46;99422.70;;;22.29;60.17
64460;BME280;50828;53.756;21.140;2022-08-16T23:50:01;99421.37;;;22.30;60.31
64460;BME280;50828;53.756;21.140;2022-08-16T23:55:07;99416.39;;;22.31;60.34
